East Smethport, Pennsylvania
Current Conditions -  °F | °C
As of 1:53 AM on Saturday 25 Oct 2014 (Local Time) from KBFD Reporting Station
Scattered Clouds Scattered Clouds  
Wind Chill: 39°   Ceiling: Unl
Heat Index: 39°   Visibility: 10mi
Dew Point: 35°   Wind: 0mph
Humidity: 86%   Direction: NA
Pressure: 29.94"   Gusts: NA
Location:  41.81°N, 78.42°W
Report Text: KBFD 250553Z AUTO 00000KT 10SM FEW029 SCT047 04/02 A2994 RMK AO2 SLP143 T00390017 10083 20033 58011
Loading
Personal Weather Stations






























Interactive Weather Map New forecast layout! Learn more

10-Day Weather Forecast

Advertisements
Track Severe Weather on mobile